sensor_id;sensor_type;location;lat;lon;timestamp;P1;durP1;ratioP1;P2;durP2;ratioP2
4420;SDS011;11824;51.178;13.546;2023-05-20T00:00:48;20.63;;;11.10;;
4420;SDS011;11824;51.178;13.546;2023-05-20T00:03:15;18.57;;;12.57;;
4420;SDS011;11824;51.178;13.546;2023-05-20T00:05:43;24.63;;;14.23;;
4420;SDS011;11824;51.178;13.546;2023-05-20T00:08:10;23.57;;;15.43;;
4420;SDS011;11824;51.178;13.546;2023-05-20T00:10:38;25.30;;;16.13;;
4420;SDS011;11824;51.178;13.546;2023-05-20T00:13:06;22.77;;;15.63;;
4420;SDS011;11824;51.178;13.546;2023-05-20T00:15:33;29.43;;;16.77;;
4420;SDS011;11824;51.178;13.546;2023-05-20T00:18:02;25.80;;;15.27;;
4420;SDS011;11824;51.178;13.546;2023-05-20T00:20:30;28.53;;;14.23;;
4420;SDS011;11824;51.178;13.546;2023-05-20T00:22:57;20.10;;;13.00;;
4420;SDS011;11824;51.178;13.546;2023-05-20T00:25:25;25.07;;;15.43;;
4420;SDS011;11824;51.178;13.546;2023-05-20T00:27:53;26.10;;;16.47;;
4420;SDS011;11824;51.178;13.546;2023-05-20T00:30:20;22.80;;;16.40;;
4420;SDS011;11824;51.178;13.546;2023-05-20T00:32:48;21.37;;;12.50;;
4420;SDS011;11824;51.178;13.546;2023-05-20T00:35:15;25.43;;;16.43;;
4420;SDS011;11824;51.178;13.546;2023-05-20T00:37:42;27.50;;;17.30;;
4420;SDS011;11824;51.178;13.546;2023-05-20T00:40:10;25.83;;;17.67;;
4420;SDS011;11824;51.178;13.546;2023-05-20T00:42:42;28.80;;;16.63;;
4420;SDS011;11824;51.178;13.546;2023-05-20T00:45:10;21.47;;;14.10;;
4420;SDS011;11824;51.178;13.546;2023-05-20T00:47:38;25.40;;;14.70;;
4420;SDS011;11824;51.178;13.546;2023-05-20T00:50:06;25.47;;;17.27;;
4420;SDS011;11824;51.178;13.546;2023-05-20T00:52:34;29.87;;;18.77;;
4420;SDS011;11824;51.178;13.546;2023-05-20T00:55:03;26.87;;;14.67;;
4420;SDS011;11824;51.178;13.546;2023-05-20T00:57:30;26.60;;;15.80;;
4420;SDS011;11824;51.178;13.546;2023-05-20T00:59:58;19.90;;;12.60;;
4420;SDS011;11824;51.178;13.546;2023-05-20T01:02:26;27.43;;;16.77;;
4420;SDS011;11824;51.178;13.546;2023-05-20T01:04:55;31.37;;;19.60;;
4420;SDS011;11824;51.178;13.546;2023-05-20T01:07:23;23.97;;;17.67;;
4420;SDS011;11824;51.178;13.546;2023-05-20T01:09:51;36.27;;;18.67;;
4420;SDS011;11824;51.178;13.546;2023-05-20T01:12:21;24.33;;;17.03;;
4420;SDS011;11824;51.178;13.546;2023-05-20T01:14:53;29.37;;;17.23;;
4420;SDS011;11824;51.178;13.546;2023-05-20T01:17:26;28.50;;;18.40;;
4420;SDS011;11824;51.178;13.546;2023-05-20T01:19:55;29.03;;;17.90;;
4420;SDS011;11824;51.178;13.546;2023-05-20T01:22:26;27.57;;;15.60;;
4420;SDS011;11824;51.178;13.546;2023-05-20T01:24:53;26.77;;;18.20;;
4420;SDS011;11824;51.178;13.546;2023-05-20T01:27:21;21.87;;;13.37;;
4420;SDS011;11824;51.178;13.546;2023-05-20T01:29:49;25.10;;;16.87;;
4420;SDS011;11824;51.178;13.546;2023-05-20T01:32:18;23.70;;;15.77;;
4420;SDS011;11824;51.178;13.546;2023-05-20T01:34:48;25.90;;;17.87;;
4420;SDS011;11824;51.178;13.546;2023-05-20T01:37:17;26.33;;;14.13;;
4420;SDS011;11824;51.178;13.546;2023-05-20T01:39:47;29.67;;;17.77;;
4420;SDS011;11824;51.178;13.546;2023-05-20T01:42:15;28.30;;;17.23;;
4420;SDS011;11824;51.178;13.546;2023-05-20T01:44:44;26.43;;;17.90;;
4420;SDS011;11824;51.178;13.546;2023-05-20T01:47:11;30.53;;;16.50;;
4420;SDS011;11824;51.178;13.546;2023-05-20T01:49:39;25.60;;;16.27;;
4420;SDS011;11824;51.178;13.546;2023-05-20T01:52:06;27.60;;;17.30;;
4420;SDS011;11824;51.178;13.546;2023-05-20T01:54:33;22.80;;;16.17;;
4420;SDS011;11824;51.178;13.546;2023-05-20T01:57:02;23.67;;;15.87;;
4420;SDS011;11824;51.178;13.546;2023-05-20T01:59:29;23.93;;;16.60;;
4420;SDS011;11824;51.178;13.546;2023-05-20T02:01:56;24.77;;;15.53;;
4420;SDS011;11824;51.178;13.546;2023-05-20T02:04:24;26.30;;;16.13;;
4420;SDS011;11824;51.178;13.546;2023-05-20T02:06:51;23.37;;;16.30;;
4420;SDS011;11824;51.178;13.546;2023-05-20T02:09:19;25.20;;;16.80;;
4420;SDS011;11824;51.178;13.546;2023-05-20T02:11:46;21.10;;;16.43;;
4420;SDS011;11824;51.178;13.546;2023-05-20T02:14:14;23.63;;;15.63;;
4420;SDS011;11824;51.178;13.546;2023-05-20T02:16:41;22.30;;;15.73;;
4420;SDS011;11824;51.178;13.546;2023-05-20T02:19:09;28.27;;;14.70;;
4420;SDS011;11824;51.178;13.546;2023-05-20T02:21:38;22.13;;;15.63;;
4420;SDS011;11824;51.178;13.546;2023-05-20T02:24:06;24.73;;;15.73;;
4420;SDS011;11824;51.178;13.546;2023-05-20T02:26:34;21.67;;;14.80;;
4420;SDS011;11824;51.178;13.546;2023-05-20T02:29:01;21.20;;;15.07;;
4420;SDS011;11824;51.178;13.546;2023-05-20T02:31:29;24.57;;;16.00;;
4420;SDS011;11824;51.178;13.546;2023-05-20T02:33:56;22.30;;;14.30;;
4420;SDS011;11824;51.178;13.546;2023-05-20T02:36:24;17.57;;;12.77;;
4420;SDS011;11824;51.178;13.546;2023-05-20T02:38:52;19.97;;;14.70;;
4420;SDS011;11824;51.178;13.546;2023-05-20T02:41:21;18.57;;;13.97;;
4420;SDS011;11824;51.178;13.546;2023-05-20T02:43:48;18.90;;;14.27;;
4420;SDS011;11824;51.178;13.546;2023-05-20T02:46:15;20.33;;;13.97;;
4420;SDS011;11824;51.178;13.546;2023-05-20T02:48:45;17.80;;;12.10;;
4420;SDS011;11824;51.178;13.546;2023-05-20T02:51:12;19.57;;;14.00;;
4420;SDS011;11824;51.178;13.546;2023-05-20T02:53:39;17.57;;;12.17;;
4420;SDS011;11824;51.178;13.546;2023-05-20T02:56:07;21.80;;;13.00;;
4420;SDS011;11824;51.178;13.546;2023-05-20T02:58:34;19.60;;;13.77;;
4420;SDS011;11824;51.178;13.546;2023-05-20T03:01:02;21.20;;;13.50;;
4420;SDS011;11824;51.178;13.546;2023-05-20T03:03:29;23.90;;;14.30;;
4420;SDS011;11824;51.178;13.546;2023-05-20T03:05:57;22.77;;;13.57;;
4420;SDS011;11824;51.178;13.546;2023-05-20T03:08:24;22.23;;;14.70;;
4420;SDS011;11824;51.178;13.546;2023-05-20T03:10:52;17.37;;;13.33;;
4420;SDS011;11824;51.178;13.546;2023-05-20T03:13:19;18.23;;;14.03;;
4420;SDS011;11824;51.178;13.546;2023-05-20T03:15:46;20.27;;;13.30;;
4420;SDS011;11824;51.178;13.546;2023-05-20T03:18:14;20.07;;;14.20;;
4420;SDS011;11824;51.178;13.546;2023-05-20T03:20:41;23.20;;;16.00;;
4420;SDS011;11824;51.178;13.546;2023-05-20T03:23:10;23.57;;;14.33;;
4420;SDS011;11824;51.178;13.546;2023-05-20T03:25:38;18.27;;;13.00;;
4420;SDS011;11824;51.178;13.546;2023-05-20T03:28:05;25.03;;;14.70;;
4420;SDS011;11824;51.178;13.546;2023-05-20T03:30:32;27.10;;;14.97;;
4420;SDS011;11824;51.178;13.546;2023-05-20T03:33:00;27.23;;;16.50;;
4420;SDS011;11824;51.178;13.546;2023-05-20T03:35:28;24.27;;;15.27;;
4420;SDS011;11824;51.178;13.546;2023-05-20T03:37:55;22.50;;;15.30;;
4420;SDS011;11824;51.178;13.546;2023-05-20T03:40:24;23.10;;;14.87;;
4420;SDS011;11824;51.178;13.546;2023-05-20T03:42:52;21.17;;;15.47;;
4420;SDS011;11824;51.178;13.546;2023-05-20T03:45:19;42.37;;;16.70;;
4420;SDS011;11824;51.178;13.546;2023-05-20T03:47:47;29.13;;;15.13;;
4420;SDS011;11824;51.178;13.546;2023-05-20T03:50:15;24.03;;;16.60;;
4420;SDS011;11824;51.178;13.546;2023-05-20T03:52:42;21.33;;;15.87;;
4420;SDS011;11824;51.178;13.546;2023-05-20T03:55:09;23.90;;;16.60;;
4420;SDS011;11824;51.178;13.546;2023-05-20T03:57:38;29.97;;;17.83;;
4420;SDS011;11824;51.178;13.546;2023-05-20T04:00:05;23.20;;;16.37;;
4420;SDS011;11824;51.178;13.546;2023-05-20T04:02:36;31.70;;;17.40;;
4420;SDS011;11824;51.178;13.546;2023-05-20T04:05:04;26.33;;;16.57;;
4420;SDS011;11824;51.178;13.546;2023-05-20T04:07:33;20.73;;;15.73;;
4420;SDS011;11824;51.178;13.546;2023-05-20T04:10:01;25.40;;;17.40;;
4420;SDS011;11824;51.178;13.546;2023-05-20T04:12:28;25.57;;;17.30;;
4420;SDS011;11824;51.178;13.546;2023-05-20T04:14:57;25.10;;;15.60;;
4420;SDS011;11824;51.178;13.546;2023-05-20T04:17:26;27.33;;;16.97;;
4420;SDS011;11824;51.178;13.546;2023-05-20T04:19:54;29.30;;;16.77;;
4420;SDS011;11824;51.178;13.546;2023-05-20T04:22:22;25.30;;;17.03;;
4420;SDS011;11824;51.178;13.546;2023-05-20T04:24:50;32.53;;;17.00;;
4420;SDS011;11824;51.178;13.546;2023-05-20T04:27:17;22.53;;;16.00;;
4420;SDS011;11824;51.178;13.546;2023-05-20T04:29:46;12.93;;;7.97;;
4420;SDS011;11824;51.178;13.546;2023-05-20T04:32:16;20.50;;;14.80;;
4420;SDS011;11824;51.178;13.546;2023-05-20T04:34:44;25.23;;;16.40;;
4420;SDS011;11824;51.178;13.546;2023-05-20T04:37:11;23.87;;;16.17;;
4420;SDS011;11824;51.178;13.546;2023-05-20T04:39:39;26.47;;;16.50;;
4420;SDS011;11824;51.178;13.546;2023-05-20T04:42:08;27.57;;;18.77;;
4420;SDS011;11824;51.178;13.546;2023-05-20T04:44:35;26.60;;;17.50;;
4420;SDS011;11824;51.178;13.546;2023-05-20T04:47:03;28.13;;;17.80;;
4420;SDS011;11824;51.178;13.546;2023-05-20T04:49:33;24.63;;;15.67;;
4420;SDS011;11824;51.178;13.546;2023-05-20T04:52:00;27.63;;;17.37;;
4420;SDS011;11824;51.178;13.546;2023-05-20T04:54:27;23.97;;;16.53;;
4420;SDS011;11824;51.178;13.546;2023-05-20T04:56:55;26.33;;;17.50;;
4420;SDS011;11824;51.178;13.546;2023-05-20T04:59:22;20.13;;;13.87;;
4420;SDS011;11824;51.178;13.546;2023-05-20T05:01:50;23.33;;;14.33;;
4420;SDS011;11824;51.178;13.546;2023-05-20T05:04:17;24.80;;;15.83;;
4420;SDS011;11824;51.178;13.546;2023-05-20T05:06:47;28.43;;;18.73;;
4420;SDS011;11824;51.178;13.546;2023-05-20T05:09:14;29.43;;;17.63;;
4420;SDS011;11824;51.178;13.546;2023-05-20T05:11:41;21.97;;;13.13;;
4420;SDS011;11824;51.178;13.546;2023-05-20T05:14:09;28.40;;;19.63;;
4420;SDS011;11824;51.178;13.546;2023-05-20T05:16:36;26.50;;;18.57;;
4420;SDS011;11824;51.178;13.546;2023-05-20T05:19:03;28.30;;;18.27;;
4420;SDS011;11824;51.178;13.546;2023-05-20T05:21:31;28.30;;;19.13;;
4420;SDS011;11824;51.178;13.546;2023-05-20T05:24:00;31.23;;;18.77;;
4420;SDS011;11824;51.178;13.546;2023-05-20T05:26:27;30.60;;;18.40;;
4420;SDS011;11824;51.178;13.546;2023-05-20T05:28:54;29.90;;;19.10;;
4420;SDS011;11824;51.178;13.546;2023-05-20T05:31:22;35.57;;;16.67;;
4420;SDS011;11824;51.178;13.546;2023-05-20T05:33:49;33.33;;;17.80;;
4420;SDS011;11824;51.178;13.546;2023-05-20T05:36:16;27.80;;;19.97;;
4420;SDS011;11824;51.178;13.546;2023-05-20T05:38:44;33.03;;;19.90;;
4420;SDS011;11824;51.178;13.546;2023-05-20T05:41:12;36.30;;;24.90;;
4420;SDS011;11824;51.178;13.546;2023-05-20T05:43:39;25.37;;;18.30;;
4420;SDS011;11824;51.178;13.546;2023-05-20T05:46:06;31.40;;;19.40;;
4420;SDS011;11824;51.178;13.546;2023-05-20T05:48:35;30.73;;;17.80;;
4420;SDS011;11824;51.178;13.546;2023-05-20T05:51:03;28.50;;;16.60;;
4420;SDS011;11824;51.178;13.546;2023-05-20T05:53:30;36.43;;;19.07;;
4420;SDS011;11824;51.178;13.546;2023-05-20T05:55:58;29.47;;;18.87;;
4420;SDS011;11824;51.178;13.546;2023-05-20T05:58:26;31.53;;;18.60;;
4420;SDS011;11824;51.178;13.546;2023-05-20T06:00:53;29.50;;;19.10;;
4420;SDS011;11824;51.178;13.546;2023-05-20T06:03:21;32.70;;;20.70;;
4420;SDS011;11824;51.178;13.546;2023-05-20T06:05:48;30.20;;;18.57;;
4420;SDS011;11824;51.178;13.546;2023-05-20T06:08:16;30.00;;;16.83;;
4420;SDS011;11824;51.178;13.546;2023-05-20T06:10:45;29.50;;;19.50;;
4420;SDS011;11824;51.178;13.546;2023-05-20T06:13:14;30.60;;;20.40;;
4420;SDS011;11824;51.178;13.546;2023-05-20T06:15:42;35.70;;;21.80;;
4420;SDS011;11824;51.178;13.546;2023-05-20T06:18:10;31.63;;;17.50;;
4420;SDS011;11824;51.178;13.546;2023-05-20T06:20:38;32.63;;;20.77;;
4420;SDS011;11824;51.178;13.546;2023-05-20T06:23:05;29.17;;;20.20;;
4420;SDS011;11824;51.178;13.546;2023-05-20T06:25:32;28.13;;;17.00;;
4420;SDS011;11824;51.178;13.546;2023-05-20T06:28:00;26.80;;;18.43;;
4420;SDS011;11824;51.178;13.546;2023-05-20T06:30:28;33.37;;;21.63;;
4420;SDS011;11824;51.178;13.546;2023-05-20T06:32:56;42.43;;;20.00;;
4420;SDS011;11824;51.178;13.546;2023-05-20T06:35:23;31.37;;;19.60;;
4420;SDS011;11824;51.178;13.546;2023-05-20T06:37:51;32.80;;;22.17;;
4420;SDS011;11824;51.178;13.546;2023-05-20T06:40:18;32.90;;;23.43;;
4420;SDS011;11824;51.178;13.546;2023-05-20T06:42:46;25.20;;;15.90;;
4420;SDS011;11824;51.178;13.546;2023-05-20T06:45:13;29.97;;;18.00;;
4420;SDS011;11824;51.178;13.546;2023-05-20T06:47:40;34.77;;;19.83;;
4420;SDS011;11824;51.178;13.546;2023-05-20T06:50:09;44.50;;;20.83;;
4420;SDS011;11824;51.178;13.546;2023-05-20T06:52:37;29.63;;;17.60;;
4420;SDS011;11824;51.178;13.546;2023-05-20T06:55:04;33.03;;;21.87;;
4420;SDS011;11824;51.178;13.546;2023-05-20T06:57:32;39.60;;;21.90;;
4420;SDS011;11824;51.178;13.546;2023-05-20T07:00:00;27.80;;;17.07;;
4420;SDS011;11824;51.178;13.546;2023-05-20T07:02:27;25.37;;;16.93;;
4420;SDS011;11824;51.178;13.546;2023-05-20T07:04:54;39.67;;;20.50;;
4420;SDS011;11824;51.178;13.546;2023-05-20T07:07:22;30.67;;;20.10;;
4420;SDS011;11824;51.178;13.546;2023-05-20T07:09:51;30.10;;;18.03;;
4420;SDS011;11824;51.178;13.546;2023-05-20T07:12:19;27.23;;;16.17;;
4420;SDS011;11824;51.178;13.546;2023-05-20T07:14:47;39.63;;;20.00;;
4420;SDS011;11824;51.178;13.546;2023-05-20T07:17:14;30.30;;;20.13;;
4420;SDS011;11824;51.178;13.546;2023-05-20T07:19:41;32.93;;;18.97;;
4420;SDS011;11824;51.178;13.546;2023-05-20T07:22:09;30.47;;;19.40;;
4420;SDS011;11824;51.178;13.546;2023-05-20T07:24:37;17.73;;;11.57;;
4420;SDS011;11824;51.178;13.546;2023-05-20T07:27:04;31.10;;;19.70;;
4420;SDS011;11824;51.178;13.546;2023-05-20T07:29:32;32.20;;;19.10;;
4420;SDS011;11824;51.178;13.546;2023-05-20T07:31:59;32.90;;;21.70;;
4420;SDS011;11824;51.178;13.546;2023-05-20T07:34:27;31.97;;;18.23;;
4420;SDS011;11824;51.178;13.546;2023-05-20T07:36:55;23.00;;;13.47;;
4420;SDS011;11824;51.178;13.546;2023-05-20T07:39:22;31.80;;;19.50;;
4420;SDS011;11824;51.178;13.546;2023-05-20T07:41:50;26.30;;;17.70;;
4420;SDS011;11824;51.178;13.546;2023-05-20T07:44:17;23.90;;;15.57;;
4420;SDS011;11824;51.178;13.546;2023-05-20T07:46:46;29.77;;;18.40;;
4420;SDS011;11824;51.178;13.546;2023-05-20T07:49:14;29.60;;;21.63;;
4420;SDS011;11824;51.178;13.546;2023-05-20T07:51:42;22.90;;;12.63;;
4420;SDS011;11824;51.178;13.546;2023-05-20T07:54:09;41.43;;;26.07;;
4420;SDS011;11824;51.178;13.546;2023-05-20T07:56:36;33.37;;;22.40;;
4420;SDS011;11824;51.178;13.546;2023-05-20T07:59:04;31.17;;;20.60;;
4420;SDS011;11824;51.178;13.546;2023-05-20T08:01:32;21.13;;;13.90;;
4420;SDS011;11824;51.178;13.546;2023-05-20T08:03:59;25.70;;;16.67;;
4420;SDS011;11824;51.178;13.546;2023-05-20T08:06:27;23.70;;;14.67;;
4420;SDS011;11824;51.178;13.546;2023-05-20T08:08:55;31.47;;;20.17;;
4420;SDS011;11824;51.178;13.546;2023-05-20T08:11:22;22.13;;;13.60;;
4420;SDS011;11824;51.178;13.546;2023-05-20T08:13:50;39.30;;;25.40;;
4420;SDS011;11824;51.178;13.546;2023-05-20T08:16:19;55.17;;;26.30;;
4420;SDS011;11824;51.178;13.546;2023-05-20T08:18:47;24.83;;;16.70;;
4420;SDS011;11824;51.178;13.546;2023-05-20T08:21:14;28.30;;;18.17;;
4420;SDS011;11824;51.178;13.546;2023-05-20T08:23:42;24.70;;;16.37;;
4420;SDS011;11824;51.178;13.546;2023-05-20T08:26:09;30.93;;;20.23;;
4420;SDS011;11824;51.178;13.546;2023-05-20T08:28:38;26.97;;;19.80;;
4420;SDS011;11824;51.178;13.546;2023-05-20T08:31:08;22.20;;;14.87;;
4420;SDS011;11824;51.178;13.546;2023-05-20T08:33:37;33.67;;;18.33;;
4420;SDS011;11824;51.178;13.546;2023-05-20T08:36:05;24.03;;;16.50;;
4420;SDS011;11824;51.178;13.546;2023-05-20T08:38:33;26.07;;;13.23;;
4420;SDS011;11824;51.178;13.546;2023-05-20T08:41:01;24.70;;;15.40;;
4420;SDS011;11824;51.178;13.546;2023-05-20T08:43:33;33.00;;;19.57;;
4420;SDS011;11824;51.178;13.546;2023-05-20T08:46:01;29.47;;;19.97;;
4420;SDS011;11824;51.178;13.546;2023-05-20T08:48:31;33.43;;;19.50;;
4420;SDS011;11824;51.178;13.546;2023-05-20T08:51:01;29.20;;;19.83;;
4420;SDS011;11824;51.178;13.546;2023-05-20T08:53:30;37.00;;;20.10;;
4420;SDS011;11824;51.178;13.546;2023-05-20T08:55:58;26.57;;;14.83;;
4420;SDS011;11824;51.178;13.546;2023-05-20T08:58:27;30.47;;;20.50;;
4420;SDS011;11824;51.178;13.546;2023-05-20T09:00:56;23.77;;;15.10;;
4420;SDS011;11824;51.178;13.546;2023-05-20T09:03:24;28.27;;;19.73;;
4420;SDS011;11824;51.178;13.546;2023-05-20T09:05:51;29.47;;;18.63;;
4420;SDS011;11824;51.178;13.546;2023-05-20T09:08:23;20.23;;;14.03;;
4420;SDS011;11824;51.178;13.546;2023-05-20T09:10:52;26.67;;;17.77;;
4420;SDS011;11824;51.178;13.546;2023-05-20T09:13:20;31.60;;;19.77;;
4420;SDS011;11824;51.178;13.546;2023-05-20T09:15:50;27.33;;;15.07;;
4420;SDS011;11824;51.178;13.546;2023-05-20T09:18:17;28.93;;;15.80;;
4420;SDS011;11824;51.178;13.546;2023-05-20T09:20:49;24.63;;;15.33;;
4420;SDS011;11824;51.178;13.546;2023-05-20T09:23:17;27.60;;;15.90;;
4420;SDS011;11824;51.178;13.546;2023-05-20T09:25:48;29.53;;;18.10;;
4420;SDS011;11824;51.178;13.546;2023-05-20T09:28:19;21.37;;;12.33;;
4420;SDS011;11824;51.178;13.546;2023-05-20T09:30:49;28.27;;;15.13;;
4420;SDS011;11824;51.178;13.546;2023-05-20T09:33:22;21.53;;;13.07;;
4420;SDS011;11824;51.178;13.546;2023-05-20T09:36:03;21.67;;;14.40;;
4420;SDS011;11824;51.178;13.546;2023-05-20T09:38:33;26.67;;;18.20;;
4420;SDS011;11824;51.178;13.546;2023-05-20T09:41:05;43.97;;;13.87;;
4420;SDS011;11824;51.178;13.546;2023-05-20T09:43:33;22.43;;;13.90;;
4420;SDS011;11824;51.178;13.546;2023-05-20T09:46:01;26.63;;;13.43;;
4420;SDS011;11824;51.178;13.546;2023-05-20T09:48:30;25.20;;;17.30;;
4420;SDS011;11824;51.178;13.546;2023-05-20T09:50:59;24.67;;;12.93;;
4420;SDS011;11824;51.178;13.546;2023-05-20T09:53:27;18.40;;;12.20;;
4420;SDS011;11824;51.178;13.546;2023-05-20T09:55:57;24.60;;;13.87;;
4420;SDS011;11824;51.178;13.546;2023-05-20T09:58:24;25.73;;;13.90;;
4420;SDS011;11824;51.178;13.546;2023-05-20T10:00:52;19.07;;;12.30;;
4420;SDS011;11824;51.178;13.546;2023-05-20T10:03:20;15.60;;;9.80;;
4420;SDS011;11824;51.178;13.546;2023-05-20T10:05:51;26.93;;;15.33;;
4420;SDS011;11824;51.178;13.546;2023-05-20T10:08:38;20.33;;;12.07;;
4420;SDS011;11824;51.178;13.546;2023-05-20T10:11:23;16.37;;;10.97;;
4420;SDS011;11824;51.178;13.546;2023-05-20T10:13:59;25.90;;;16.03;;
4420;SDS011;11824;51.178;13.546;2023-05-20T10:16:45;30.33;;;17.93;;
4420;SDS011;11824;51.178;13.546;2023-05-20T10:19:20;26.47;;;16.97;;
4420;SDS011;11824;51.178;13.546;2023-05-20T10:21:59;28.90;;;17.90;;
4420;SDS011;11824;51.178;13.546;2023-05-20T10:24:31;24.33;;;13.30;;
4420;SDS011;11824;51.178;13.546;2023-05-20T10:27:00;23.17;;;14.40;;
4420;SDS011;11824;51.178;13.546;2023-05-20T10:29:41;22.30;;;15.40;;
4420;SDS011;11824;51.178;13.546;2023-05-20T10:32:25;26.27;;;15.97;;
4420;SDS011;11824;51.178;13.546;2023-05-20T10:34:59;26.47;;;14.60;;
4420;SDS011;11824;51.178;13.546;2023-05-20T10:37:32;27.87;;;14.43;;
4420;SDS011;11824;51.178;13.546;2023-05-20T10:40:06;24.53;;;14.37;;
4420;SDS011;11824;51.178;13.546;2023-05-20T10:42:37;27.80;;;13.30;;
4420;SDS011;11824;51.178;13.546;2023-05-20T10:45:05;22.50;;;14.23;;
4420;SDS011;11824;51.178;13.546;2023-05-20T10:47:34;24.43;;;15.80;;
4420;SDS011;11824;51.178;13.546;2023-05-20T10:50:02;21.73;;;17.17;;
4420;SDS011;11824;51.178;13.546;2023-05-20T10:52:31;26.00;;;13.23;;
4420;SDS011;11824;51.178;13.546;2023-05-20T10:54:59;23.10;;;14.77;;
4420;SDS011;11824;51.178;13.546;2023-05-20T10:57:29;14.90;;;9.50;;
4420;SDS011;11824;51.178;13.546;2023-05-20T10:59:58;24.67;;;16.10;;
4420;SDS011;11824;51.178;13.546;2023-05-20T11:02:26;24.30;;;16.07;;
4420;SDS011;11824;51.178;13.546;2023-05-20T11:04:54;20.80;;;13.83;;
4420;SDS011;11824;51.178;13.546;2023-05-20T11:07:26;26.23;;;16.40;;
4420;SDS011;11824;51.178;13.546;2023-05-20T11:09:57;18.40;;;9.47;;
4420;SDS011;11824;51.178;13.546;2023-05-20T11:12:25;25.40;;;16.60;;
4420;SDS011;11824;51.178;13.546;2023-05-20T11:14:53;25.63;;;17.70;;
4420;SDS011;11824;51.178;13.546;2023-05-20T11:17:21;24.70;;;15.27;;
4420;SDS011;11824;51.178;13.546;2023-05-20T11:19:49;23.10;;;16.63;;
4420;SDS011;11824;51.178;13.546;2023-05-20T11:22:16;24.70;;;14.17;;
4420;SDS011;11824;51.178;13.546;2023-05-20T11:24:44;17.57;;;10.60;;
4420;SDS011;11824;51.178;13.546;2023-05-20T11:27:12;23.50;;;14.37;;
4420;SDS011;11824;51.178;13.546;2023-05-20T11:29:39;16.53;;;11.17;;
4420;SDS011;11824;51.178;13.546;2023-05-20T11:32:07;17.43;;;10.47;;
4420;SDS011;11824;51.178;13.546;2023-05-20T11:34:35;20.90;;;13.63;;
4420;SDS011;11824;51.178;13.546;2023-05-20T11:37:05;17.30;;;11.00;;
4420;SDS011;11824;51.178;13.546;2023-05-20T11:39:34;22.07;;;15.03;;
4420;SDS011;11824;51.178;13.546;2023-05-20T11:42:02;17.53;;;10.77;;
4420;SDS011;11824;51.178;13.546;2023-05-20T11:44:30;14.83;;;9.67;;
4420;SDS011;11824;51.178;13.546;2023-05-20T11:46:59;27.10;;;12.60;;
4420;SDS011;11824;51.178;13.546;2023-05-20T11:49:28;18.70;;;13.30;;
4420;SDS011;11824;51.178;13.546;2023-05-20T11:51:58;25.67;;;13.33;;
4420;SDS011;11824;51.178;13.546;2023-05-20T11:54:28;23.50;;;16.57;;
4420;SDS011;11824;51.178;13.546;2023-05-20T11:57:00;22.73;;;13.97;;
4420;SDS011;11824;51.178;13.546;2023-05-20T11:59:31;18.23;;;11.07;;
4420;SDS011;11824;51.178;13.546;2023-05-20T12:01:59;18.50;;;13.47;;
4420;SDS011;11824;51.178;13.546;2023-05-20T12:04:26;14.80;;;8.53;;
4420;SDS011;11824;51.178;13.546;2023-05-20T12:06:53;19.87;;;12.27;;
4420;SDS011;11824;51.178;13.546;2023-05-20T12:09:24;22.40;;;15.27;;
4420;SDS011;11824;51.178;13.546;2023-05-20T12:11:55;15.33;;;11.80;;
4420;SDS011;11824;51.178;13.546;2023-05-20T12:14:22;17.30;;;11.63;;
4420;SDS011;11824;51.178;13.546;2023-05-20T12:16:49;20.40;;;12.00;;
4420;SDS011;11824;51.178;13.546;2023-05-20T12:19:18;29.80;;;12.17;;
4420;SDS011;11824;51.178;13.546;2023-05-20T12:21:46;19.97;;;11.40;;
4420;SDS011;11824;51.178;13.546;2023-05-20T12:24:13;22.67;;;13.40;;
4420;SDS011;11824;51.178;13.546;2023-05-20T12:26:41;16.67;;;12.60;;
4420;SDS011;11824;51.178;13.546;2023-05-20T12:29:09;20.20;;;12.30;;
4420;SDS011;11824;51.178;13.546;2023-05-20T12:31:36;20.93;;;13.73;;
4420;SDS011;11824;51.178;13.546;2023-05-20T12:34:04;16.83;;;11.00;;
4420;SDS011;11824;51.178;13.546;2023-05-20T12:36:31;16.57;;;11.33;;
4420;SDS011;11824;51.178;13.546;2023-05-20T12:39:02;15.90;;;11.10;;
4420;SDS011;11824;51.178;13.546;2023-05-20T12:41:29;18.57;;;11.90;;
4420;SDS011;11824;51.178;13.546;2023-05-20T12:43:57;13.17;;;8.80;;
4420;SDS011;11824;51.178;13.546;2023-05-20T12:46:25;21.90;;;11.93;;
4420;SDS011;11824;51.178;13.546;2023-05-20T12:48:53;19.10;;;9.50;;
4420;SDS011;11824;51.178;13.546;2023-05-20T12:51:20;22.37;;;13.60;;
4420;SDS011;11824;51.178;13.546;2023-05-20T12:53:48;19.93;;;12.60;;
4420;SDS011;11824;51.178;13.546;2023-05-20T12:56:15;15.13;;;10.03;;
4420;SDS011;11824;51.178;13.546;2023-05-20T12:58:43;16.53;;;10.33;;
4420;SDS011;11824;51.178;13.546;2023-05-20T13:01:12;16.80;;;12.93;;
4420;SDS011;11824;51.178;13.546;2023-05-20T13:03:39;16.47;;;10.07;;
4420;SDS011;11824;51.178;13.546;2023-05-20T13:06:07;15.10;;;11.17;;
4420;SDS011;11824;51.178;13.546;2023-05-20T13:08:34;15.13;;;10.90;;
4420;SDS011;11824;51.178;13.546;2023-05-20T13:11:02;16.13;;;10.10;;
4420;SDS011;11824;51.178;13.546;2023-05-20T13:13:29;18.13;;;9.20;;
4420;SDS011;11824;51.178;13.546;2023-05-20T13:15:57;13.57;;;9.57;;
4420;SDS011;11824;51.178;13.546;2023-05-20T13:18:25;46.87;;;10.13;;
4420;SDS011;11824;51.178;13.546;2023-05-20T13:20:53;18.70;;;13.07;;
4420;SDS011;11824;51.178;13.546;2023-05-20T13:23:20;19.73;;;7.90;;
4420;SDS011;11824;51.178;13.546;2023-05-20T13:25:48;17.33;;;11.93;;
4420;SDS011;11824;51.178;13.546;2023-05-20T13:28:16;14.23;;;10.93;;
4420;SDS011;11824;51.178;13.546;2023-05-20T13:30:45;17.83;;;12.90;;
4420;SDS011;11824;51.178;13.546;2023-05-20T13:33:12;18.70;;;12.70;;
4420;SDS011;11824;51.178;13.546;2023-05-20T13:35:40;11.60;;;9.03;;
4420;SDS011;11824;51.178;13.546;2023-05-20T13:38:08;15.87;;;11.33;;
4420;SDS011;11824;51.178;13.546;2023-05-20T13:40:35;16.43;;;11.83;;
4420;SDS011;11824;51.178;13.546;2023-05-20T13:43:03;13.20;;;10.77;;
4420;SDS011;11824;51.178;13.546;2023-05-20T13:45:30;14.13;;;8.60;;
4420;SDS011;11824;51.178;13.546;2023-05-20T13:47:58;11.17;;;9.00;;
4420;SDS011;11824;51.178;13.546;2023-05-20T13:50:27;17.00;;;11.17;;
4420;SDS011;11824;51.178;13.546;2023-05-20T13:52:55;16.33;;;10.97;;
4420;SDS011;11824;51.178;13.546;2023-05-20T13:55:23;14.47;;;11.43;;
4420;SDS011;11824;51.178;13.546;2023-05-20T13:57:50;13.50;;;10.10;;
4420;SDS011;11824;51.178;13.546;2023-05-20T14:00:18;12.30;;;9.33;;
4420;SDS011;11824;51.178;13.546;2023-05-20T14:02:46;17.47;;;11.77;;
4420;SDS011;11824;51.178;13.546;2023-05-20T14:05:14;13.03;;;10.87;;
4420;SDS011;11824;51.178;13.546;2023-05-20T14:07:43;14.40;;;11.93;;
4420;SDS011;11824;51.178;13.546;2023-05-20T14:10:11;13.13;;;9.77;;
4420;SDS011;11824;51.178;13.546;2023-05-20T14:12:39;14.00;;;11.90;;
4420;SDS011;11824;51.178;13.546;2023-05-20T14:15:10;15.87;;;10.10;;
4420;SDS011;11824;51.178;13.546;2023-05-20T14:17:38;17.07;;;10.37;;
4420;SDS011;11824;51.178;13.546;2023-05-20T14:20:06;11.77;;;10.00;;
4420;SDS011;11824;51.178;13.546;2023-05-20T14:22:35;14.90;;;8.37;;
4420;SDS011;11824;51.178;13.546;2023-05-20T14:25:02;12.77;;;8.43;;
4420;SDS011;11824;51.178;13.546;2023-05-20T14:27:31;10.43;;;7.27;;
4420;SDS011;11824;51.178;13.546;2023-05-20T14:29:59;18.47;;;11.47;;